Stations météo

Publicité
Beg Melen, France (7203): Température de l'air & dewpoint: 10.02.2019 08:00:00 - 16.02.2019 08:00:00 (CET)Beg Melen, France (7203): Vitesse du vent & gusts: 10.02.2019 08:00:00 - 16.02.2019 08:00:00 (CET)Beg Melen, France (7203): Direction du vent: 10.02.2019 08:00:00 - 16.02.2019 08:00:00 (CET)Beg Melen, France (7203): visibility: 10.02.2019 08:00:00 - 16.02.2019 08:00:00 (CET)Beg Melen, France (7203): Quantités de précipitations: 10.02.2019 08:00:00 - 16.02.2019 08:00:00 (CET)
Date & Time tt [°C] td [°C] ff [km/h] ff [knt] fx [km/h] fx [knt] dd vv [km] rr [mm]
16.02.2019 08:00:00 8,4 8,1 14 8 21 12 ESE - 0,0
16.02.2019 07:00:00 8,6 8,3 9 5 16 9 SE 0,8 0,0
16.02.2019 06:00:00 8,6 8,2 11 6 19 10 SE - 0,0
16.02.2019 05:00:00 8,7 8,2 12 6 20 11 SE - 0,0
16.02.2019 04:00:00 8,7 8,1 7 4 16 9 SE 10 0,0
16.02.2019 03:00:00 8,6 8,0 7 4 16 9 S - 0,0
16.02.2019 02:00:00 8,5 7,9 8 4 15 8 SSE - 0,0
16.02.2019 01:00:00 8,5 7,9 6 3 12 7 SSE 8 0,0
16.02.2019 00:00:00 8,7 8,1 6 3 12 7 SSE - 0,0
15.02.2019 23:00:00 8,8 8,2 7 4 14 7 S - 0,0
15.02.2019 22:00:00 8,8 8,2 7 4 16 9 S 6 0,0
15.02.2019 21:00:00 8,8 8,0 10 5 19 10 SSE - 0,0
15.02.2019 20:00:00 9,0 8,1 10 5 20 11 SSE - 0,0
15.02.2019 19:00:00 9,2 8,3 11 6 22 12 SE 6 0,0
15.02.2019 18:00:00 9,6 8,5 11 6 25 13 SSE - 0,0
15.02.2019 17:00:00 9,9 8,5 14 7 28 15 SE - 0,0
15.02.2019 16:00:00 10,5 8,4 16 9 25 14 SSE 10 0,0
15.02.2019 15:00:00 11,3 8,3 16 9 27 15 SSE - 0,0
15.02.2019 14:00:00 12,5 8,6 17 9 27 15 SE - 0,0
15.02.2019 13:00:00 12,1 8,2 19 10 31 17 SE 15 0,0
15.02.2019 12:00:00 11,4 7,5 18 10 29 16 ESE - 0,0
15.02.2019 11:00:00 10,6 7,1 21 12 35 19 ESE - 0,0
15.02.2019 10:00:00 8,3 6,3 21 12 32 17 ESE 15 0,0
15.02.2019 09:00:00 7,0 5,5 19 11 29 15 ESE - 0,0
15.02.2019 08:00:00 6,4 4,7 21 12 34 18 ESE - 0,0
15.02.2019 07:00:00 6,6 4,9 24 13 34 18 ESE 15 0,0
15.02.2019 06:00:00 6,9 5,2 24 13 30 16 ESE - 0,0
15.02.2019 05:00:00 7,3 5,6 21 11 28 15 ESE - 0,0
15.02.2019 04:00:00 7,3 5,4 21 12 29 16 ESE 20 0,0
15.02.2019 03:00:00 8,0 5,8 21 11 29 16 ESE - 0,0
15.02.2019 02:00:00 8,7 6,1 20 11 31 17 ESE - 0,0
15.02.2019 01:00:00 8,2 5,8 21 11 31 17 ESE 20 0,0
15.02.2019 00:00:00 8,3 6,1 21 11 29 16 ESE - 0,0
14.02.2019 23:00:00 7,9 5,9 18 10 28 15 ESE - 0,0
14.02.2019 22:00:00 8,8 5,9 21 11 30 16 ESE 15 0,0
14.02.2019 21:00:00 8,5 5,9 20 11 27 15 ESE - 0,0
14.02.2019 20:00:00 8,0 6,0 19 10 31 17 SE - 0,0
14.02.2019 19:00:00 8,5 5,8 21 11 32 18 SE 15 0,0
14.02.2019 18:00:00 9,5 6,4 17 9 36 19 SE - 0,0
14.02.2019 17:00:00 10,1 6,4 18 10 36 20 ESE - 0,0
14.02.2019 16:00:00 10,1 6,6 26 14 40 21 ESE 25 0,0
14.02.2019 15:00:00 10,5 6,8 21 11 35 19 ESE - 0,0
14.02.2019 14:00:00 10,1 6,2 25 13 38 20 SE - 0,0
14.02.2019 13:00:00 9,7 5,9 21 11 32 17 ESE 25 0,0
14.02.2019 12:00:00 8,6 5,2 21 12 34 18 ESE - 0,0
14.02.2019 11:00:00 6,8 3,9 16 9 29 16 E - 0,0
14.02.2019 10:00:00 4,9 3,6 18 10 29 16 E 15 0,0
14.02.2019 09:00:00 4,3 3,3 16 9 26 14 E - 0,0
14.02.2019 08:00:00 4,3 3,1 16 8 25 13 E - 0,0
14.02.2019 07:00:00 4,4 3,1 16 8 26 14 E 15 0,0
14.02.2019 06:00:00 4,6 3,3 16 9 27 14 E - 0,0
14.02.2019 05:00:00 5,1 3,8 14 8 23 12 E - 0,0
14.02.2019 04:00:00 5,2 3,7 14 8 23 12 E 25 0,0
14.02.2019 03:00:00 5,3 3,3 16 9 23 12 ESE - 0,0
14.02.2019 02:00:00 5,6 3,3 14 8 22 12 E - 0,0
14.02.2019 01:00:00 6,0 3,7 15 8 22 12 E 25 0,0
14.02.2019 00:00:00 6,2 3,7 13 7 23 12 E - 0,0
13.02.2019 23:00:00 6,7 3,8 18 10 25 13 ESE - 0,0
13.02.2019 22:00:00 7,0 3,8 18 10 26 14 ESE 25 0,0
13.02.2019 21:00:00 7,5 4,6 18 10 24 13 ESE - 0,0
13.02.2019 20:00:00 7,0 4,0 18 10 24 13 SE - 0,0
13.02.2019 19:00:00 7,4 4,0 19 10 23 12 SE - 0,0
13.02.2019 18:00:00 9,5 3,9 14 8 20 11 SE - 0,0
13.02.2019 17:00:00 11,3 4,3 12 7 20 11 SE - 0,0
13.02.2019 16:00:00 11,6 3,4 15 8 25 13 SE 35 0,0
13.02.2019 15:00:00 10,8 4,0 18 10 36 19 ESE - 0,0
13.02.2019 14:00:00 10,3 3,6 22 12 40 21 SE - 0,0
13.02.2019 13:00:00 10,1 4,9 24 13 41 22 SE 30 0,0
13.02.2019 12:00:00 8,5 5,6 24 13 38 21 SE - 0,0
13.02.2019 11:00:00 7,9 7,1 17 9 29 15 ESE - 0,0
13.02.2019 10:00:00 6,1 5,8 16 9 25 14 ESE 6 0,2
13.02.2019 09:00:00 5,6 5,3 16 9 24 13 ESE - 0,0
13.02.2019 08:00:00 6,0 5,7 16 9 28 15 ESE - 0,0
13.02.2019 07:00:00 5,9 5,6 19 10 28 15 SE 20 0,0
13.02.2019 06:00:00 5,8 5,5 18 10 23 13 ESE - 0,0
13.02.2019 05:00:00 5,9 5,8 17 9 22 12 ESE - 0,0
13.02.2019 04:00:00 5,9 5,8 13 7 23 12 E 15 0,2
13.02.2019 03:00:00 6,3 6,2 13 7 21 11 E - 0,0
13.02.2019 02:00:00 5,8 5,5 15 8 21 11 ESE - 0,0
13.02.2019 01:00:00 7,0 6,7 11 6 17 9 E 0,9 0,0
13.02.2019 00:00:00 6,5 6,1 14 8 16 9 SE - 0,2
12.02.2019 23:00:00 7,4 7,0 11 6 15 8 SSE - 0,0
12.02.2019 22:00:00 7,4 7,0 11 6 13 7 SSE 20 0,0
12.02.2019 21:00:00 7,0 6,3 13 7 16 9 SE - 0,0
12.02.2019 20:00:00 7,4 6,5 13 7 15 8 SSE - 0,0
12.02.2019 19:00:00 7,9 6,0 6 4 10 6 SE 20 0,0
12.02.2019 18:00:00 11,2 6,7 3 2 8 4 S - 0,0
12.02.2019 17:00:00 12,3 7,6 2 1 7 4 W - 0,0
12.02.2019 16:00:00 11,9 8,0 3 2 16 9 NW 20 0,0
12.02.2019 15:00:00 10,7 8,3 10 5 18 10 E - 0,0
12.02.2019 14:00:00 9,8 7,9 11 6 21 11 E - 0,0
12.02.2019 13:00:00 9,0 7,6 11 6 17 9 E 8 0,0
12.02.2019 12:00:00 8,8 6,9 10 5 17 9 E - 0,0
12.02.2019 11:00:00 7,7 6,6 9 5 14 8 E - 0,0
12.02.2019 10:00:00 7,0 6,6 10 5 17 9 E 8 0,0
12.02.2019 09:00:00 5,9 5,2 15 8 18 10 ESE - 0,0
12.02.2019 08:00:00 5,8 5,1 16 9 19 10 ESE - 0,0
12.02.2019 07:00:00 6,0 5,1 15 8 18 10 ESE 20 0,0
12.02.2019 06:00:00 5,9 4,9 15 8 18 10 ESE - 0,0
12.02.2019 05:00:00 6,2 5,0 13 7 18 10 ESE - 0,0
12.02.2019 04:00:00 6,6 5,2 15 8 18 10 ESE 20 0,0
12.02.2019 03:00:00 7,0 4,8 12 7 17 9 ESE - 0,0
12.02.2019 02:00:00 7,1 4,7 13 7 18 10 ESE - 0,0
12.02.2019 01:00:00 7,2 5,0 13 7 19 10 SE 20 0,0
12.02.2019 00:00:00 7,5 5,5 13 7 17 9 ESE - 0,0
11.02.2019 23:00:00 8,0 5,8 11 6 17 9 ENE - 0,0
11.02.2019 22:00:00 8,6 5,5 6 3 16 9 NW 20 0,0
11.02.2019 21:00:00 9,7 5,9 12 7 16 9 NNW - 0,0
11.02.2019 20:00:00 9,9 6,6 10 6 19 10 NW - 0,0
11.02.2019 19:00:00 10,1 7,2 15 8 30 16 NW 20 0,0
11.02.2019 18:00:00 10,3 7,0 22 12 30 16 WNW - 0,0
11.02.2019 17:00:00 11,6 7,1 20 11 34 18 NW - 0,0
11.02.2019 16:00:00 10,7 6,8 23 13 35 19 NW 30 0,0
11.02.2019 15:00:00 10,6 6,7 24 13 38 21 WNW - 0,0
11.02.2019 14:00:00 11,3 6,2 23 12 37 20 NW - 0,0
11.02.2019 13:00:00 10,5 6,1 28 15 45 25 NW 20 0,0
11.02.2019 12:00:00 10,2 5,8 29 15 51 28 NW - 0,0
11.02.2019 11:00:00 9,8 5,6 32 17 53 29 NW - 0,0
11.02.2019 10:00:00 9,5 5,3 37 20 60 32 NW 15 0,0
11.02.2019 09:00:00 9,6 5,4 35 19 60 33 WNW - 0,0
11.02.2019 08:00:00 9,5 4,7 40 22 61 33 WNW - 0,0
11.02.2019 07:00:00 9,2 5,2 36 20 54 29 WNW 20 0,0
11.02.2019 06:00:00 9,0 5,4 38 21 61 33 WNW - 0,0
11.02.2019 05:00:00 8,8 4,4 35 19 54 29 WNW - 0,0
11.02.2019 04:00:00 8,7 4,5 40 22 66 35 WNW - 0,0
11.02.2019 03:00:00 8,5 4,1 49 27 64 35 WNW - 0,0
11.02.2019 02:00:00 7,9 1,9 45 24 73 40 WNW - 0,0
11.02.2019 01:00:00 8,3 2,9 54 29 81 44 WNW 20 0,2
11.02.2019 00:00:00 8,4 4,8 48 26 60 32 W - 0,0
10.02.2019 23:00:00 8,0 5,3 44 24 55 30 WNW - 0,0
10.02.2019 22:00:00 7,3 3,9 38 20 72 39 WNW - 0,8
10.02.2019 21:00:00 8,5 4,3 50 27 70 38 WNW - 0,0
10.02.2019 20:00:00 8,0 3,1 48 26 79 43 WNW - 0,2
10.02.2019 19:00:00 9,1 3,3 44 24 67 36 WNW 20 0,0
10.02.2019 18:00:00 8,5 4,3 46 25 109 59 WNW - 0,0
10.02.2019 17:00:00 9,8 2,2 59 32 89 48 WNW - 0,0
10.02.2019 16:00:00 10,2 3,5 54 29 82 44 WNW 25 0,0
10.02.2019 15:00:00 9,8 4,6 45 24 88 48 WNW - 0,0
10.02.2019 14:00:00 9,7 4,5 66 36 94 51 WNW - 0,2
10.02.2019 13:00:00 9,8 5,0 72 39 105 57 W 20 0,2
10.02.2019 12:00:00 8,4 4,6 74 40 119 64 W - 0,0
10.02.2019 11:00:00 8,9 3,9 76 41 102 55 W - 0,0
10.02.2019 10:00:00 8,2 2,8 67 36 104 56 WNW 18 0,2
10.02.2019 09:00:00 7,8 4,9 55 30 114 62 WNW - 0,4
10.02.2019 08:00:00 8,4 5,1 56 31 119 64 W - 0,2

tt = Température de l'air
td = dewpoint
ff = Vitesse du vent
fx = gusts
dd = Direction du vent
vv = visibility
rr = Quantités de précipitations

stations d'obs. à proximité